Time;durP1;ratioP1;P1;durP2;ratioP2;P2;SDS_P1;SDS_P2;PMS_P1;PMS_P2;Temp;Humidity;BMP_temperature;BMP_pressure;BME280_temperature;BME280_humidity;BME280_pressure;Samples;Min_cycle;Max_cycle;Signal;HPM_P1;HPM_P2
2023/01/29 00:00:33;;;;;;;8.75;5.03;;;;;;;15.98;62.38;99091.91;2058755;28;20160;-49
2023/01/29 00:01:35;;;;;;;;;;;;;;;15.88;62.72;99095.81;2068863;28;20045;-45
2023/01/29 00:02:36;;;;;;;6.15;3.92;;;;;;;15.92;62.50;99107.84;2067490;28;19948;-52
2023/01/29 00:03:37;;;;;;;;;;;;;;;15.83;62.84;99101.72;2070662;28;20053;-48
2023/01/29 00:04:38;;;;;;;7.90;4.70;;;;;;;15.86;62.81;99107.53;2061324;28;19983;-45
2023/01/29 00:05:39;;;;;;;;;;;;;;;15.81;63.03;99109.06;2067037;28;20143;-48
2023/01/29 00:06:42;;;;;;;8.68;3.97;;;;;;;15.86;62.70;99101.34;2066454;28;19948;-47
2023/01/29 00:07:44;;;;;;;13.30;4.43;;;;;;;15.90;62.53;99108.00;2061327;28;20075;-50
2023/01/29 00:08:45;;;;;;;8.35;4.13;;;;;;;15.92;62.58;99110.53;2064907;28;20053;-49
2023/01/29 00:09:47;;;;;;;10.65;4.57;;;;;;;15.92;62.53;99106.00;2064989;28;20060;-47
2023/01/29 00:10:47;;;;;;;6.43;4.75;;;;;;;15.92;62.61;99107.84;2064158;28;20114;-49
2023/01/29 00:11:49;;;;;;;;;;;;;;;15.83;62.73;99107.88;2068304;28;20127;-49
2023/01/29 00:12:50;;;;;;;7.05;4.13;;;;;;;15.85;62.69;99111.22;2062634;28;19941;-50
2023/01/29 00:13:52;;;;;;;7.03;4.18;;;;;;;15.89;62.59;99109.03;2063838;28;20053;-50
2023/01/29 00:14:53;;;;;;;7.85;3.85;;;;;;;15.92;62.47;99110.53;2066974;28;20133;-50
2023/01/29 00:15:56;;;;;;;8.95;4.78;;;;;;;15.94;62.42;99105.84;2065998;28;20053;-50
2023/01/29 00:16:57;;;;;;;7.70;4.60;;;;;;;15.93;62.53;99112.19;2068929;28;20496;-51
2023/01/29 00:17:58;;;;;;;;;;;;;;;15.79;62.82;99105.72;2071369;28;20081;-49
2023/01/29 00:19:00;;;;;;;11.10;3.95;;;;;;;15.82;62.81;99110.72;2065087;28;20429;-51
2023/01/29 00:20:01;;;;;;;8.07;4.65;;;;;;;15.85;62.85;99111.22;2061324;28;20132;-51
2023/01/29 00:21:02;;;;;;;7.80;4.07;;;;;;;15.86;62.75;99106.72;2062038;28;20053;-48
2023/01/29 00:22:05;;;;;;;;;;;;;;;15.78;63.00;99107.56;2063713;28;20555;-50
2023/01/29 00:23:05;;;;;;;10.80;4.50;;;;;;;15.80;62.94;99100.22;2068402;28;20452;-49
2023/01/29 00:24:07;;;;;;;;;;;;;;;15.74;63.09;99108.94;2064384;28;20057;-49
2023/01/29 00:25:08;;;;;;;6.65;4.05;;;;;;;15.77;63.13;99103.25;2064582;28;20004;-49
2023/01/29 00:26:11;;;;;;;7.18;4.15;;;;;;;15.80;62.85;99102.06;2066682;28;20049;-47
2023/01/29 00:27:11;;;;;;;10.32;4.18;;;;;;;15.80;62.99;99104.75;2065210;28;20054;-51
2023/01/29 00:28:13;;;;;;;;;;;;;;;15.71;63.41;99103.94;2063652;28;20112;-45
2023/01/29 00:29:14;;;;;;;;;;;;;;;15.65;63.49;99109.91;2064439;28;20271;-46
2023/01/29 00:30:17;;;;;;;8.50;4.23;;;;;;;15.70;63.36;99109.44;2065833;28;19925;-45
2023/01/29 00:31:20;;;;;;;9.05;3.42;;;;;;;15.75;63.10;99104.41;2063583;28;20106;-44
2023/01/29 00:32:22;;;;;;;6.80;4.20;;;;;;;15.79;63.04;99114.56;2067568;28;20049;-50
2023/01/29 00:33:23;;;;;;;11.25;4.55;;;;;;;15.80;62.84;99113.59;2064129;28;20099;-46
2023/01/29 00:34:24;;;;;;;;;;;;;;;15.70;63.26;99106.78;2062587;28;20168;-46
2023/01/29 00:35:26;;;;;;;6.45;4.13;;;;;;;15.72;63.51;99102.91;2064920;28;20446;-45
2023/01/29 00:36:27;;;;;;;;;;;;;;;15.65;63.46;99105.41;2060864;28;20061;-49
2023/01/29 00:37:29;;;;;;;6.03;4.18;;;;;;;15.71;63.38;99111.09;2064110;28;21628;-48
2023/01/29 00:38:31;;;;;;;9.25;4.63;;;;;;;15.76;63.44;99109.56;2065041;28;20516;-47
2023/01/29 00:39:37;;;;;;;8.05;3.67;;;;;;;15.77;63.15;99108.59;2062433;28;20095;-45
2023/01/29 00:45:58;;;;;;;6.13;3.90;;;;;;;15.71;63.54;99114.63;2063630;28;20045;-50
2023/01/29 00:46:59;;;;;;;8.13;4.15;;;;;;;15.71;63.52;99106.63;2066781;28;20110;-48
2023/01/29 00:48:01;;;;;;;7.75;4.43;;;;;;;15.73;63.42;99112.59;2064429;28;20072;-49
2023/01/29 00:49:02;;;;;;;7.35;3.92;;;;;;;15.73;63.72;99106.41;2068459;28;20046;-46
2023/01/29 00:50:07;;;;;;;8.23;4.03;;;;;;;15.75;63.25;99110.59;2066536;28;20059;-47
2023/01/29 00:51:08;;;;;;;7.70;3.88;;;;;;;15.73;63.42;99117.13;2061478;28;20057;-50
2023/01/29 00:52:24;;;;;;;;;;;;;;;15.61;64.15;99116.63;2061692;28;20122;-47
2023/01/29 00:53:27;;;;;;;5.18;3.90;;;;;;;15.63;63.57;99111.97;2066075;28;20890;-48
2023/01/29 00:54:28;;;;;;;7.13;3.90;;;;;;;15.66;64.12;99108.94;2066058;28;20167;-48
2023/01/29 00:55:29;;;;;;;;;;;;;;;15.56;63.97;99108.28;2063999;28;20054;-50
2023/01/29 00:56:30;;;;;;;10.13;4.60;;;;;;;15.60;63.94;99114.94;2068485;28;19970;-47
2023/01/29 00:57:32;;;;;;;;;;;;;;;15.53;64.02;99106.78;2068279;28;21000;-50
2023/01/29 00:58:33;;;;;;;6.35;3.47;;;;;;;15.55;64.11;99109.31;2060978;28;19933;-51
2023/01/29 00:59:34;;;;;;;;;;;;;;;15.50;64.23;99117.00;2062289;28;20057;-47
2023/01/29 01:00:36;;;;;;;8.45;4.20;;;;;;;15.55;63.97;99109.31;2060853;28;19999;-47
2023/01/29 01:03:07;;;;;;;7.15;3.67;;;;;;;15.60;63.87;99112.28;2034112;28;20582;-49
2023/01/29 01:04:09;;;;;;;8.10;3.97;;;;;;;15.60;63.78;99115.81;2066017;28;20526;-47
2023/01/29 01:05:16;;;;;;;9.30;3.97;;;;;;;15.61;64.22;99117.47;2064358;28;20057;-50
2023/01/29 01:06:17;;;;;;;10.40;4.68;;;;;;;15.64;63.77;99114.44;2065805;28;20092;-47
2023/01/29 01:07:18;;;;;;;;;;;;;;;15.55;63.97;99118.16;2067638;28;20788;-49
2023/01/29 01:11:14;;;;;;;6.73;3.20;;;;;;;15.56;63.96;99116.31;2043549;28;20058;-45
2023/01/29 01:12:15;;;;;;;8.00;3.90;;;;;;;15.59;64.31;99111.44;2047847;28;20348;-47
2023/01/29 01:13:16;;;;;;;;;;;;;;;15.49;64.35;99115.31;2046505;28;20612;-47
2023/01/29 01:14:17;;;;;;;9.40;4.40;;;;;;;15.49;64.20;99116.19;2047488;28;19930;-47
2023/01/29 01:15:19;;;;;;;8.00;3.33;;;;;;;15.54;63.97;99113.78;2050698;28;20055;-48
2023/01/29 01:16:20;;;;;;;8.38;4.15;;;;;;;15.59;63.98;99113.28;2065283;28;20113;-46
2023/01/29 01:17:21;;;;;;;;;;;;;;;15.48;64.30;99121.69;2072708;28;20856;-47
2023/01/29 01:18:22;;;;;;;8.63;4.00;;;;;;;15.50;64.27;99122.34;2070045;28;19929;-46
2023/01/29 01:19:23;;;;;;;;;;;;;;;15.42;64.74;99118.69;2073561;28;20083;-46
2023/01/29 01:20:26;;;;;;;13.35;4.35;;;;;;;15.49;64.39;99118.00;2066912;28;20965;-45
2023/01/29 01:21:27;;;;;;;7.63;4.57;;;;;;;15.52;64.11;99121.19;2070391;28;20128;-44
2023/01/29 01:22:28;;;;;;;;;;;;;;;15.44;64.73;99123.03;2069829;28;20056;-46
2023/01/29 01:23:29;;;;;;;11.73;4.50;;;;;;;15.47;64.06;99122.69;2067758;28;19925;-47
2023/01/29 01:24:30;;;;;;;;;;;;;;;15.40;64.72;99125.19;2068671;28;20120;-45
2023/01/29 01:25:33;;;;;;;4.20;3.08;;;;;;;15.47;64.34;99122.69;2067973;28;20394;-47
2023/01/29 01:26:34;;;;;;;7.22;3.50;;;;;;;15.50;64.08;99125.03;2063275;28;20089;-47
2023/01/29 01:27:39;;;;;;;;;;;;;;;15.42;64.29;99124.03;2070482;28;20050;-47
2023/01/29 01:28:40;;;;;;;7.53;4.03;;;;;;;15.45;64.22;99122.03;2073470;28;19929;-47
2023/01/29 01:29:41;;;;;;;;;;;;;;;15.36;64.45;99126.56;2069934;28;20128;-46
2023/01/29 01:30:42;;;;;;;14.77;3.78;;;;;;;15.39;64.54;99124.38;2073099;28;19929;-45
2023/01/29 01:31:44;;;;;;;;;;;;;;;15.35;64.54;99131.06;2071428;28;20049;-47
2023/01/29 01:32:45;;;;;;;;;;;;;;;15.30;64.76;99122.72;2066462;28;20002;-46
2023/01/29 01:33:46;;;;;;;9.67;3.93;;;;;;;15.36;64.46;99118.53;2071963;28;20426;-47
2023/01/29 01:34:47;;;;;;;8.98;5.15;;;;;;;15.42;64.36;99124.03;2069953;28;21215;-48
2023/01/29 01:35:48;;;;;;;;;;;;;;;15.37;64.54;99128.22;2065057;28;21225;-46
2023/01/29 01:36:49;;;;;;;8.88;3.75;;;;;;;15.38;64.47;99128.06;2067456;28;20326;-50
2023/01/29 01:37:50;;;;;;;;;;;;;;;15.32;64.69;99126.09;2070754;28;20049;-46
2023/01/29 01:38:51;;;;;;;6.78;3.67;;;;;;;15.36;64.44;99126.56;2066177;28;19971;-48
2023/01/29 01:39:57;;;;;;;;;;;;;;;15.30;64.66;99127.25;2069149;28;20045;-45
2023/01/29 01:40:59;;;;;;;5.60;3.20;;;;;;;15.34;64.48;99126.72;2058272;28;19937;-47
2023/01/29 01:42:00;;;;;;;7.63;3.60;;;;;;;15.36;64.32;99132.75;2062208;28;20049;-48
2023/01/29 01:43:01;;;;;;;5.50;3.13;;;;;;;15.39;64.50;99131.56;2069363;28;20045;-47
2023/01/29 01:44:05;;;;;;;;;;;;;;;15.33;64.50;99126.91;2067715;28;20072;-50
2023/01/29 01:45:16;;;;;;;6.13;3.38;;;;;;;15.34;64.50;99132.06;2063633;28;19932;-45
2023/01/29 01:46:18;;;;;;;11.35;4.32;;;;;;;15.35;64.74;99128.41;2064126;28;20068;-45
2023/01/29 01:47:25;;;;;;;6.68;4.38;;;;;;;15.39;64.40;99127.03;2063795;28;21389;-47
2023/01/29 01:48:27;;;;;;;8.52;4.85;;;;;;;15.41;64.29;99135.75;2064272;28;20049;-47
2023/01/29 01:49:28;;;;;;;13.00;3.88;;;;;;;15.40;64.53;99128.72;2059677;28;20104;-46
2023/01/29 01:50:31;;;;;;;;;;;;;;;15.30;64.58;99127.25;2067464;28;20049;-47
2023/01/29 01:51:36;;;;;;;5.38;3.42;;;;;;;15.33;64.74;99126.91;2065727;28;19925;-48
2023/01/29 01:52:41;;;;;;;5.65;3.97;;;;;;;15.35;64.58;99124.88;2065867;28;20055;-46
2023/01/29 01:53:50;;;;;;;6.95;3.17;;;;;;;15.37;64.47;99129.03;2068476;28;20111;-45
2023/01/29 01:54:51;;;;;;;8.55;4.22;;;;;;;15.38;64.38;99129.91;2068465;28;20049;-47
2023/01/29 01:55:54;;;;;;;;;;;;;;;15.27;64.72;99130.25;2066912;28;20120;-47
2023/01/29 01:57:08;;;;;;;6.85;3.75;;;;;;;15.32;64.63;99127.88;2069516;28;19937;-47
2023/01/29 01:58:15;;;;;;;7.30;3.78;;;;;;;15.31;64.69;99128.91;2068160;28;20072;-44
2023/01/29 01:59:17;;;;;;;7.05;3.67;;;;;;;15.34;64.50;99126.72;2070442;28;20072;-44
2023/01/29 02:00:22;;;;;;;14.23;4.22;;;;;;;15.36;64.44;99127.38;2070588;28;21706;-47
2023/01/29 02:01:27;;;;;;;5.68;3.85;;;;;;;15.35;64.60;99124.88;2068790;28;20057;-47
2023/01/29 02:09:35;;;;;;;10.68;3.85;;;;;;;15.28;64.45;99130.06;2066092;28;20042;-48
2023/01/29 02:10:42;;;;;;;8.23;4.00;;;;;;;15.27;64.38;99128.41;2067952;28;20142;-47
2023/01/29 02:11:43;;;;;;;5.15;3.20;;;;;;;15.27;64.37;99125.75;2065301;28;20123;-45
2023/01/29 02:12:46;;;;;;;5.47;3.92;;;;;;;15.28;64.41;99130.06;2063880;28;20903;-47
2023/01/29 02:13:52;;;;;;;6.45;3.17;;;;;;;15.29;64.39;99130.91;2069977;28;20049;-49
2023/01/29 02:14:53;;;;;;;9.82;3.70;;;;;;;15.26;64.62;99126.72;2062311;28;20054;-45
2023/01/29 02:15:54;;;;;;;;;;;;;;;15.14;64.72;99133.44;2067719;28;20136;-45
2023/01/29 02:16:55;;;;;;;5.03;3.90;;;;;;;15.16;64.63;99134.13;2069938;28;19970;-49
2023/01/29 02:17:56;;;;;;;;;;;;;;;15.08;65.00;99132.28;2064586;28;20057;-45
2023/01/29 02:18:57;;;;;;;8.63;4.40;;;;;;;15.12;64.74;99130.94;2068120;28;19936;-46
2023/01/29 02:20:03;;;;;;;;;;;;;;;15.06;64.94;99136.13;2067811;28;20538;-48
2023/01/29 02:21:23;;;;;;;6.03;3.50;;;;;;;15.09;64.97;99136.59;2070714;28;19932;-45
2023/01/29 02:23:12;;;;;;;3.92;2.75;;;;;;;15.10;64.82;99140.09;2067837;28;20058;-46
2023/01/29 02:24:44;;;;;;;6.85;3.47;;;;;;;15.12;64.69;99135.44;2042038;28;20592;-45
2023/01/29 02:25:59;;;;;;;8.75;3.05;;;;;;;15.14;64.63;99136.13;2045469;28;20054;-47
2023/01/29 02:27:07;;;;;;;5.80;3.63;;;;;;;15.15;64.65;99140.44;2068842;28;20145;-48
2023/01/29 02:28:21;;;;;;;5.80;3.53;;;;;;;15.15;64.65;99138.59;2065534;28;20103;-47
2023/01/29 02:29:32;;;;;;;5.68;3.15;;;;;;;15.17;64.52;99136.59;2067656;28;20050;-45
2023/01/29 02:30:37;;;;;;;7.43;3.50;;;;;;;15.14;64.58;99138.78;2070631;28;20058;-48
2023/01/29 02:31:43;;;;;;;7.28;3.65;;;;;;;15.14;64.59;99138.78;2068932;28;20049;-49
2023/01/29 02:32:57;;;;;;;4.88;3.38;;;;;;;15.15;64.63;99137.78;2069973;28;20052;-46
2023/01/29 02:34:11;;;;;;;6.88;3.20;;;;;;;15.13;64.86;99137.97;2069320;28;20061;-45
2023/01/29 02:35:28;;;;;;;8.82;3.40;;;;;;;15.17;64.56;99139.28;2066639;28;20053;-48
2023/01/29 02:36:37;;;;;;;8.05;3.50;;;;;;;15.14;64.48;99130.78;2068604;28;20050;-47
2023/01/29 02:37:45;;;;;;;5.55;3.33;;;;;;;15.11;64.66;99134.63;2068288;28;20046;-47
2023/01/29 02:38:54;;;;;;;4.38;2.88;;;;;;;15.12;64.75;99143.47;2071826;28;20103;-46
2023/01/29 02:40:05;;;;;;;5.20;2.50;;;;;;;15.11;64.71;99134.63;2069742;28;20045;-45
2023/01/29 02:41:15;;;;;;;5.13;3.55;;;;;;;15.12;64.39;99140.78;2067081;28;20106;-47
2023/01/29 02:42:26;;;;;;;5.38;3.80;;;;;;;15.13;64.63;99142.47;2067680;28;20049;-50
2023/01/29 02:43:34;;;;;;;5.90;3.38;;;;;;;15.10;64.56;99138.31;2069580;28;21135;-50
2023/01/29 02:44:39;;;;;;;9.80;3.47;;;;;;;15.10;64.56;99138.31;2073441;28;20061;-47
2023/01/29 02:45:47;;;;;;;5.63;3.42;;;;;;;15.13;64.63;99137.13;2064000;28;20049;-46
2023/01/29 02:46:54;;;;;;;6.07;3.65;;;;;;;15.11;64.45;99136.47;2072461;28;20061;-45
2023/01/29 02:47:59;;;;;;;7.03;4.43;;;;;;;15.12;64.54;99143.47;2069899;28;20072;-45
2023/01/29 02:49:07;;;;;;;4.20;3.08;;;;;;;15.11;64.62;99139.97;2070981;28;20076;-49
2023/01/29 02:50:15;;;;;;;7.18;3.55;;;;;;;15.11;64.48;99139.97;2067465;28;20050;-47
2023/01/29 02:51:20;;;;;;;6.63;3.58;;;;;;;15.10;64.54;99137.44;2068707;28;20052;-47
2023/01/29 02:52:28;;;;;;;6.30;3.17;;;;;;;15.10;64.57;99137.44;2068873;28;20073;-46
2023/01/29 02:53:36;;;;;;;6.55;3.53;;;;;;;15.11;64.55;99145.31;2071770;28;20610;-48
2023/01/29 02:54:45;;;;;;;5.38;3.15;;;;;;;15.10;64.32;99137.44;2065799;28;20101;-48
2023/01/29 02:55:51;;;;;;;6.25;3.75;;;;;;;15.07;64.43;99133.28;2066545;28;20070;-47
2023/01/29 02:56:57;;;;;;;5.55;3.72;;;;;;;15.07;64.46;99140.44;2065087;28;21423;-47
2023/01/29 02:58:06;;;;;;;4.57;3.53;;;;;;;15.07;64.67;99138.63;2065433;28;20463;-46
2023/01/29 02:59:14;;;;;;;4.72;3.55;;;;;;;15.06;64.49;99136.94;2069279;28;22264;-49
2023/01/29 03:00:18;;;;;;;6.53;3.97;;;;;;;15.04;64.58;99138.13;2063992;28;20477;-48
2023/01/29 03:01:29;;;;;;;6.68;3.85;;;;;;;15.06;64.58;99136.13;2067327;28;20746;-49
2023/01/29 03:02:34;;;;;;;6.25;3.20;;;;;;;15.06;64.40;99136.13;2064240;28;20443;-45
2023/01/29 03:03:40;;;;;;;9.73;3.53;;;;;;;15.05;64.49;99137.13;2064802;28;20054;-46
2023/01/29 03:04:45;;;;;;;6.63;3.13;;;;;;;15.02;64.52;99132.97;2069716;28;20104;-46
2023/01/29 03:05:55;;;;;;;7.80;3.20;;;;;;;15.02;64.51;99140.16;2067306;28;20850;-49
2023/01/29 03:07:01;;;;;;;4.57;3.45;;;;;;;15.02;64.49;99140.16;2067881;28;20054;-46
2023/01/29 03:08:09;;;;;;;5.80;2.95;;;;;;;15.04;64.58;99140.78;2065665;28;20062;-46
2023/01/29 03:09:15;;;;;;;7.82;3.40;;;;;;;15.02;64.56;99137.47;2065259;28;20045;-45
2023/01/29 03:10:23;;;;;;;3.90;3.08;;;;;;;15.03;64.42;99137.28;2066613;28;20068;-46
2023/01/29 03:11:28;;;;;;;5.75;3.65;;;;;;;15.02;64.55;99129.47;2066655;28;20486;-47
2023/01/29 03:12:35;;;;;;;7.22;3.03;;;;;;;15.02;64.75;99134.81;2064338;28;20513;-48
2023/01/29 03:13:45;;;;;;;9.73;3.63;;;;;;;15.02;64.44;99140.97;2066037;28;20122;-44
2023/01/29 03:16:14;;;;;;;6.50;3.45;;;;;;;14.98;64.56;99139.63;2069703;28;20053;-45
2023/01/29 03:17:15;;;;;;;8.43;3.47;;;;;;;14.95;64.51;99142.63;2068761;28;20053;-46
2023/01/29 03:18:18;;;;;;;;;;;;;;;14.86;64.89;99141.81;2070349;28;20053;-45
2023/01/29 03:19:24;;;;;;;5.82;3.67;;;;;;;14.89;64.79;99141.47;2062728;28;19979;-47
2023/01/29 03:20:33;;;;;;;9.00;3.40;;;;;;;14.92;64.80;99145.66;2063751;28;20057;-47
2023/01/29 03:21:58;;;;;;;6.25;3.38;;;;;;;14.91;64.93;99138.66;2065365;28;20664;-45
2023/01/29 03:23:06;;;;;;;5.95;3.58;;;;;;;14.90;64.80;99139.63;2066910;28;20137;-47
2023/01/29 03:32:25;;;;;;;6.97;3.72;;;;;;;14.84;64.96;99149.13;2065489;28;20045;-50
2023/01/29 03:33:31;;;;;;;5.90;3.38;;;;;;;14.87;64.81;99138.13;2066068;28;20057;-47
2023/01/29 03:34:42;;;;;;;4.57;2.95;;;;;;;14.87;64.82;99140.78;2065990;28;20069;-46
2023/01/29 03:35:47;;;;;;;;;;;;;;;14.77;65.30;99147.31;2066761;28;20049;-49
2023/01/29 03:36:54;;;;;;;4.47;2.90;;;;;;;14.80;65.26;99142.47;2063101;28;20529;-50
2023/01/29 03:37:55;;;;;;;5.25;3.55;;;;;;;14.83;65.01;99139.47;2064152;28;20054;-50
2023/01/29 03:38:58;;;;;;;4.80;3.00;;;;;;;14.87;64.94;99143.47;2065546;28;20057;-46
2023/01/29 03:39:58;;;;;;;7.10;3.75;;;;;;;14.87;64.96;99142.63;2064340;28;20085;-47
2023/01/29 03:41:04;;;;;;;;;;;;;;;14.78;65.17;99135.63;2063227;28;20045;-48
2023/01/29 03:42:15;;;;;;;6.15;2.75;;;;;;;14.82;65.17;99147.63;2064950;28;20051;-53
2023/01/29 03:43:26;;;;;;;7.88;3.80;;;;;;;14.81;64.97;99145.97;2065051;28;20424;-48
2023/01/29 03:44:36;;;;;;;5.63;3.20;;;;;;;14.78;64.81;99146.31;2070263;28;20054;-48
2023/01/29 03:45:46;;;;;;;4.20;3.40;;;;;;;14.81;64.96;99151.31;2062904;28;20050;-50
2023/01/29 03:46:55;;;;;;;4.70;2.65;;;;;;;14.81;64.88;99149.47;2066794;28;20594;-48
2023/01/29 03:48:07;;;;;;;6.65;2.70;;;;;;;14.79;65.00;99146.13;2061839;28;20080;-48
2023/01/29 03:49:18;;;;;;;10.82;4.15;;;;;;;14.79;64.90;99148.81;2068106;28;20072;-50
2023/01/29 03:50:32;;;;;;;5.13;3.70;;;;;;;14.76;65.02;99146.47;2067465;28;20050;-50
2023/01/29 03:51:40;;;;;;;4.07;3.63;;;;;;;14.77;64.90;99153.50;2064111;28;20057;-50
2023/01/29 03:52:48;;;;;;;6.18;2.72;;;;;;;14.77;64.98;99158.84;2064782;28;20049;-51
2023/01/29 03:53:55;;;;;;;5.68;3.03;;;;;;;14.78;64.89;99141.81;2061551;28;20135;-48
2023/01/29 03:55:05;;;;;;;3.67;2.63;;;;;;;14.79;65.04;99146.13;2063249;28;20073;-47
2023/01/29 03:56:15;;;;;;;8.05;3.28;;;;;;;14.77;65.05;99142.81;2061902;28;20443;-48
2023/01/29 03:57:22;;;;;;;7.82;3.13;;;;;;;14.78;64.95;99149.81;2060453;28;20076;-49
2023/01/29 03:58:33;;;;;;;3.90;2.75;;;;;;;14.81;64.96;99151.31;2067520;28;20049;-48
2023/01/29 03:59:42;;;;;;;6.78;3.22;;;;;;;14.77;64.99;99152.66;2063669;28;20599;-47
2023/01/29 04:00:49;;;;;;;4.75;3.30;;;;;;;14.77;65.25;99147.31;2063598;28;20041;-52
2023/01/29 04:01:56;;;;;;;5.30;3.28;;;;;;;14.76;65.11;99143.78;2063488;28;20454;-46
2023/01/29 04:03:04;;;;;;;6.10;3.47;;;;;;;14.75;64.77;99144.81;2061872;28;20049;-50
2023/01/29 04:04:14;;;;;;;7.25;3.80;;;;;;;14.77;65.11;99147.31;2063745;28;20056;-49
2023/01/29 04:05:19;;;;;;;7.55;3.13;;;;;;;14.74;65.51;99145.81;2065368;28;20045;-50
2023/01/29 04:06:26;;;;;;;4.38;3.20;;;;;;;14.74;65.49;99148.50;2062652;28;20045;-45
2023/01/29 04:07:32;;;;;;;8.82;3.50;;;;;;;14.74;65.48;99148.50;2066898;28;20112;-48
2023/01/29 04:08:39;;;;;;;3.60;3.03;;;;;;;14.74;65.48;99149.31;2067970;28;20650;-47
2023/01/29 04:09:45;;;;;;;5.00;3.40;;;;;;;14.75;65.07;99152.81;2064269;28;20103;-50
2023/01/29 04:10:49;;;;;;;4.90;3.05;;;;;;;14.74;64.92;99157.31;2060989;28;21344;-48
2023/01/29 04:11:55;;;;;;;3.53;2.60;;;;;;;14.76;64.85;99143.78;2060097;28;20125;-48
2023/01/29 04:13:01;;;;;;;4.72;3.17;;;;;;;14.77;64.93;99144.66;2066459;28;20053;-47
2023/01/29 04:14:02;;;;;;;6.45;2.83;;;;;;;14.75;64.84;99147.47;2063748;28;20243;-49
2023/01/29 04:15:09;;;;;;;5.22;2.78;;;;;;;14.74;65.00;99148.50;2060377;28;20923;-48
2023/01/29 04:16:15;;;;;;;5.80;3.00;;;;;;;14.76;64.98;99151.81;2063284;28;20045;-48
2023/01/29 04:17:23;;;;;;;6.03;3.15;;;;;;;14.74;64.91;99143.97;2065627;28;20502;-50
2023/01/29 04:18:24;;;;;;;6.28;2.65;;;;;;;14.73;64.84;99146.81;2062496;28;20058;-50
2023/01/29 04:19:25;;;;;;;;;;;;;;;14.64;65.06;99148.63;2063245;28;20100;-51
2023/01/29 04:20:26;;;;;;;;;;;;;;;14.55;65.45;99154.13;2064127;28;20521;-46
2023/01/29 04:21:30;;;;;;;4.43;3.22;;;;;;;14.61;65.28;99153.47;2066092;28;19921;-52
2023/01/29 04:22:34;;;;;;;5.47;3.10;;;;;;;14.65;64.99;99149.47;2061524;28;20213;-50
2023/01/29 04:23:35;;;;;;;6.50;3.53;;;;;;;14.67;65.08;99152.81;2064192;28;20049;-53
2023/01/29 04:24:36;;;;;;;6.20;3.50;;;;;;;14.65;65.14;99150.28;2063407;28;20053;-51
2023/01/29 04:25:43;;;;;;;;;;;;;;;14.58;65.29;99151.13;2064449;28;20049;-47
2023/01/29 04:26:54;;;;;;;3.72;2.63;;;;;;;14.61;65.30;99148.13;2063081;28;19925;-47
2023/01/29 04:28:05;;;;;;;4.85;2.97;;;;;;;14.62;65.18;99141.78;2064339;28;20099;-46
2023/01/29 04:29:17;;;;;;;5.80;3.05;;;;;;;14.63;65.16;99151.47;2067862;28;20058;-49
2023/01/29 04:30:26;;;;;;;6.55;2.90;;;;;;;14.64;65.24;99139.78;2067862;28;20128;-47
2023/01/29 04:31:32;;;;;;;8.35;2.50;;;;;;;14.64;65.12;99143.28;2067333;28;20065;-47
2023/01/29 04:32:48;;;;;;;5.45;2.83;;;;;;;14.63;64.97;99151.47;2066777;28;20121;-46
2023/01/29 04:34:00;;;;;;;5.95;3.33;;;;;;;14.64;65.21;99145.97;2070254;28;20053;-46
2023/01/29 04:35:17;;;;;;;6.57;4.13;;;;;;;14.64;65.35;99148.63;2065118;28;20057;-48
2023/01/29 04:36:28;;;;;;;5.30;2.90;;;;;;;14.67;65.33;99144.81;2066782;28;20057;-46
2023/01/29 04:37:37;;;;;;;4.82;2.97;;;;;;;14.66;65.62;99146.63;2065748;28;20100;-47
2023/01/29 04:38:51;;;;;;;4.30;2.97;;;;;;;14.70;65.82;99157.81;2069213;28;20049;-45
2023/01/29 04:39:59;;;;;;;6.68;3.05;;;;;;;14.73;65.83;99147.63;2066552;28;20045;-49
2023/01/29 04:41:08;;;;;;;6.07;3.03;;;;;;;14.82;65.61;99158.31;2064493;28;20063;-46
2023/01/29 04:42:15;;;;;;;4.60;3.30;;;;;;;14.89;65.39;99159.34;2066130;28;20049;-46
2023/01/29 04:43:25;;;;;;;3.70;2.72;;;;;;;14.97;65.22;99151.31;2065624;28;20129;-45
2023/01/29 04:44:34;;;;;;;3.92;2.28;;;;;;;15.02;65.48;99158.84;2073036;28;20102;-46
2023/01/29 04:45:47;;;;;;;6.80;2.70;;;;;;;15.06;65.44;99158.31;2068593;28;20053;-46
2023/01/29 04:46:57;;;;;;;5.65;2.58;;;;;;;15.13;65.39;99158.50;2068590;28;20091;-46
2023/01/29 04:48:11;;;;;;;4.20;2.67;;;;;;;15.20;65.32;99164.81;2071963;28;20145;-47
2023/01/29 04:49:24;;;;;;;5.05;2.70;;;;;;;15.26;65.24;99166.00;2068315;28;20069;-47
2023/01/29 04:50:32;;;;;;;5.80;2.42;;;;;;;15.32;65.28;99163.50;2067226;28;20058;-47
2023/01/29 04:51:43;;;;;;;5.72;2.72;;;;;;;15.36;65.17;99170.16;2066398;28;20045;-47
2023/01/29 04:52:51;;;;;;;6.03;2.28;;;;;;;15.36;65.56;99169.31;2067893;28;20169;-47
2023/01/29 04:54:02;;;;;;;6.15;2.25;;;;;;;15.39;65.53;99164.47;2068038;28;20114;-46
2023/01/29 04:55:09;;;;;;;5.22;2.40;;;;;;;15.42;65.49;99172.16;2072961;28;20065;-47
2023/01/29 04:56:17;;;;;;;5.20;2.53;;;;;;;15.48;65.54;99164.47;2069967;28;20075;-48
2023/01/29 04:57:24;;;;;;;3.38;2.20;;;;;;;15.50;65.62;99165.13;2072396;28;20238;-47
2023/01/29 04:58:32;;;;;;;7.07;2.67;;;;;;;15.54;65.50;99166.44;2071216;28;20559;-45
2023/01/29 04:59:42;;;;;;;3.00;2.42;;;;;;;15.55;65.57;99168.13;2072323;28;20132;-46
2023/01/29 05:00:47;;;;;;;6.80;2.60;;;;;;;15.59;65.33;99158.75;2074118;28;20049;-48
2023/01/29 05:01:49;;;;;;;5.60;2.50;;;;;;;15.63;65.70;99165.44;2069220;28;20070;-47
2023/01/29 05:02:51;;;;;;;3.70;2.55;;;;;;;15.65;65.41;99158.88;2068051;28;20050;-48
2023/01/29 05:03:55;;;;;;;2.50;2.10;;;;;;;15.69;65.50;99164.78;2065913;28;20057;-48
2023/01/29 05:04:57;;;;;;;3.95;2.45;;;;;;;15.71;65.35;99157.44;2066754;28;20245;-45
2023/01/29 05:06:02;;;;;;;8.75;3.67;;;;;;;15.78;65.33;99168.25;2069730;28;20049;-46
2023/01/29 05:07:05;;;;;;;3.90;1.98;;;;;;;15.78;65.31;99166.41;2066624;28;20064;-46
2023/01/29 05:08:09;;;;;;;3.33;2.25;;;;;;;15.82;65.10;99159.72;2072913;28;20045;-47
2023/01/29 05:09:13;;;;;;;5.53;2.72;;;;;;;15.82;65.14;99164.22;2066421;28;20049;-47
2023/01/29 05:10:18;;;;;;;3.95;2.65;;;;;;;15.88;65.13;99166.22;2064674;28;20045;-46
2023/01/29 05:11:19;;;;;;;4.18;2.88;;;;;;;15.89;65.14;99165.22;2066398;28;20061;-46
2023/01/29 05:12:26;;;;;;;7.07;2.97;;;;;;;15.94;65.15;99167.38;2064248;28;20045;-46
2023/01/29 05:13:30;;;;;;;3.38;2.42;;;;;;;15.94;65.16;99160.19;2064262;28;20053;-47
2023/01/29 05:14:34;;;;;;;3.22;1.95;;;;;;;15.95;65.12;99164.50;2062879;28;20781;-45
2023/01/29 05:15:38;;;;;;;3.60;1.90;;;;;;;15.97;65.06;99167.03;2063506;28;24637;-46
2023/01/29 05:16:43;;;;;;;4.38;2.65;;;;;;;15.97;65.08;99169.69;2065301;28;20056;-47
2023/01/29 05:17:44;;;;;;;4.32;2.47;;;;;;;15.96;65.25;99173.38;2063485;28;20130;-47
2023/01/29 05:18:46;;;;;;;;;;;;;;;15.94;65.24;99167.38;2063854;28;20452;-46
2023/01/29 05:19:48;;;;;;;;;;;;;;;15.91;65.63;99173.03;2065863;28;19928;-47
2023/01/29 05:20:50;;;;;;;4.53;2.50;;;;;;;15.96;65.23;99176.88;2070775;28;19925;-50
2023/01/29 05:21:51;;;;;;;2.92;1.90;;;;;;;16.04;65.13;99173.34;2072429;28;21214;-45
2023/01/29 05:22:52;;;;;;;;;;;;;;;15.99;65.10;99173.88;2068214;28;20049;-45
2023/01/29 05:24:07;;;;;;;3.20;1.92;;;;;;;16.06;65.14;99176.69;2068919;28;20466;-46
2023/01/29 05:25:21;;;;;;;2.15;1.95;;;;;;;16.06;65.04;99174.84;2071038;28;20054;-47
2023/01/29 05:29:01;;;;;;;3.35;2.38;;;;;;;16.19;64.89;99178.81;2065348;28;20053;-45
2023/01/29 05:30:01;;;;;;;3.85;2.15;;;;;;;16.20;65.02;99183.97;2065736;28;20474;-48
2023/01/29 05:31:03;;;;;;;;;;;;;;;16.14;64.98;99179.31;2069702;28;20054;-48
2023/01/29 05:32:04;;;;;;;4.13;2.42;;;;;;;16.20;64.82;99185.81;2066569;28;19928;-46
2023/01/29 05:33:10;;;;;;;;;;;;;;;16.16;64.92;99176.44;2070006;28;20054;-48
2023/01/29 05:34:11;;;;;;;4.07;2.33;;;;;;;16.17;65.14;99183.50;2067841;28;19921;-47
2023/01/29 05:35:14;;;;;;;;;;;;;;;16.14;65.07;99186.53;2067672;28;20466;-46
2023/01/29 05:36:14;;;;;;;5.20;1.98;;;;;;;16.21;64.99;99185.63;2068527;28;19925;-47
2023/01/29 05:37:16;;;;;;;;;;;;;;;16.13;65.23;99182.16;2070285;28;20519;-46
2023/01/29 05:38:18;;;;;;;3.10;2.35;;;;;;;16.19;65.03;99182.31;2063713;28;22116;-45
2023/01/29 05:39:19;;;;;;;3.17;2.03;;;;;;;16.26;64.98;99185.09;2068703;28;20053;-46
2023/01/29 05:40:20;;;;;;;3.70;2.90;;;;;;;16.31;64.83;99191.59;2067070;28;20049;-50
2023/01/29 05:41:22;;;;;;;;;;;;;;;16.26;64.93;99196.66;2067303;28;20076;-45